Des Lacs, ND (58733)

11:30 PM CDT on July 23, 2016 (GMT -0500)
Edgeview Estates | | Change Station

Elev 1752 ft 48.21 °N, 101.33 °W | Updated 9 seconds ago

Clear
Clear
66.6 °F
Feels Like 66.6 °F
N
8.0
Wind Variable Wind from NE
Gusts 8.0 mph

Today
High -- | Low -- °F
--% Chance of Precip.
Yesterday
High -- | Low -- °F
Precip. -- in
Pressure 29.84 in
Visibility 10.0 miles
Clouds Clear
Dew Point 57 °F
Humidity 72%
Rainfall 0.89 in
Snow Depth Not available.
6:11 AM 9:33 PM
Waning Gibbous, 80% visible
METAR KMOT 240354Z AUTO 27014KT 10SM CLR 22/14 A2985 RMK AO2 SLP103 T02170139
Pressure 29.84 in
Visibility 10.0 miles
Clouds Clear
Dew Point 57 °F
Humidity 72%
Rainfall 0.89 in
Snow Depth Not available.
6:11 AM 9:33 PM
Waning Gibbous, 80% visible
METAR KMOT 240354Z AUTO 27014KT 10SM CLR 22/14 A2985 RMK AO2 SLP103 T02170139

10-Day Weather Forecast

Almanac

Astronomy

Jul. 23, 2016 Rise Set
Actual Time
Civil Twilight
Nautical Twilight
Astronomical Twilight
Moon
Length of Visible Light
Length of Day
Tomorrow will be .
, % of the Moon is Illuminated

Today's Extremes

State Highs State Lows

Community

WunderPhotos

Upload Photos

1,927,027 photos uploaded!

WunderBlog® & News

Nearby

Air Quality

  Air Quality AQ Index Pollutant
Not available.

Snow Depth

Station Depth Elevation

Earthquake Activity

City Distance Mag. Time & Date
Minimum magnitude displayed is 2.5.

Coastal Water Temperatures

Place Temperature

Stations

Nearby Weather Stations

Station Location Temp. Windchill Dew Point Humidity Wind Precip. Elev Updated Type
                   

Watches & Warnings

There are currently no watches in effect.